KHOU/HOU METAR and TAF weather

Enter ICAO airport designator
Station Type Date Time Source
KHOU METAR 2019/05/19 20:53 UTC NOAA

KHOU 192053Z 16012KT 9SM FEW038 SCT050 BKN250 32/23 A2984 RMK AO2 SLP107 T03170233 56015


Station Type Date Time Source
KHOU Decoded METAR 2019/05/19 20:53 UTC NOAA

HOUSTON HOBBY AIRPORT, TX, United States (KHOU) 29-38N 095-17W 36M
May 19, 2019 - 04:53 PM EDT / 2019.05.19 2053 UTC
Wind: from the SSE (160 degrees) at 14 MPH (12 KT):0
Visibility: 9 mile(s):0
Sky conditions: mostly cloudy
Temperature: 89.1 F (31.7 C)
Heat index: 98.1 F (36.7 C):1
Dew Point: 73.9 F (23.3 C)
Relative Humidity: 61%
Pressure (altimeter): 29.84 in. Hg (1010 hPa)
Pressure tendency: 0.04 inches (1.5 hPa) lower than three hours ago
ob: KHOU 192053Z 16012KT 9SM FEW038 SCT050 BKN250 32/23 A2984 RMK AO2 SLP107 T03170233 56015
cycle: 21

Station Type Date Time Source
KHOU TAF 2019/05/19 21:03 UTC NOAA

TAF
AMD KHOU 192101Z 1921/2018 16012KT P6SM FEW040 SCT050 BKN250
FM200200 16005KT P6SM SCT050
FM200600 14005KT P6SM BKN015
FM201500 16012KT P6SM BKN025

Example: see airport list